createdAt,value
2022-12-18T00:01:39.670Z,20.43
2022-12-18T00:04:10.413Z,19.13
2022-12-18T00:06:39.260Z,16.87
2022-12-18T00:09:08.048Z,18.00
2022-12-18T00:11:38.241Z,17.00
2022-12-18T00:14:06.942Z,18.60
2022-12-18T00:16:38.159Z,15.60
2022-12-18T00:19:08.621Z,15.47
2022-12-18T00:21:37.320Z,16.20
2022-12-18T00:24:06.543Z,15.23
2022-12-18T00:26:39.181Z,16.63
2022-12-18T00:29:09.670Z,17.70
2022-12-18T00:31:39.728Z,16.50
2022-12-18T00:34:08.914Z,16.87
2022-12-18T00:36:37.923Z,18.47
2022-12-18T00:39:08.515Z,18.30
2022-12-18T00:41:55.769Z,15.30
2022-12-18T00:44:24.463Z,16.30
2022-12-18T00:46:53.192Z,17.03
2022-12-18T00:49:22.876Z,15.37
2022-12-18T00:51:51.745Z,15.00
2022-12-18T00:54:20.536Z,17.73
2022-12-18T00:56:50.707Z,18.27
2022-12-18T00:59:21.044Z,15.97
2022-12-18T01:01:49.936Z,16.03
2022-12-18T01:04:18.875Z,16.93
2022-12-18T01:06:47.857Z,16.20
2022-12-18T01:09:16.547Z,14.87
2022-12-18T01:11:45.243Z,18.20
2022-12-18T01:14:15.377Z,16.97
2022-12-18T01:16:44.246Z,17.83
2022-12-18T01:19:13.031Z,17.83
2022-12-18T01:21:41.750Z,17.10
2022-12-18T01:24:13.950Z,18.93
2022-12-18T01:26:42.715Z,16.87
2022-12-18T01:29:11.394Z,16.13
2022-12-18T01:31:41.603Z,14.37
2022-12-18T01:34:11.468Z,18.20
2022-12-18T01:36:41.498Z,16.70
2022-12-18T01:39:13.405Z,16.00
2022-12-18T01:42:00.197Z,14.87
2022-12-18T01:44:58.350Z,20.27
2022-12-18T01:47:33.216Z,15.20
2022-12-18T01:50:06.857Z,13.93
2022-12-18T01:52:37.087Z,17.50
2022-12-18T01:55:09.103Z,17.23
2022-12-18T01:57:38.490Z,17.67
2022-12-18T02:00:11.867Z,16.67
2022-12-18T02:02:43.193Z,17.27
2022-12-18T02:05:14.051Z,16.20
2022-12-18T02:07:54.099Z,16.07
2022-12-18T02:10:28.556Z,18.07
2022-12-18T02:13:05.168Z,13.97
2022-12-18T02:15:41.605Z,18.20
2022-12-18T02:18:18.147Z,17.37
2022-12-18T02:20:50.377Z,16.07
2022-12-18T02:23:35.042Z,17.20
2022-12-18T02:26:16.870Z,15.73
2022-12-18T02:28:49.652Z,15.03
2022-12-18T02:31:22.329Z,13.90
2022-12-18T02:33:52.937Z,14.17
2022-12-18T02:36:24.409Z,14.87
2022-12-18T02:38:54.729Z,16.77
2022-12-18T02:41:26.947Z,14.90
2022-12-18T02:43:59.264Z,15.53
2022-12-18T02:46:35.689Z,14.67
2022-12-18T02:49:13.990Z,15.57
2022-12-18T02:51:52.547Z,14.37
2022-12-18T02:54:33.744Z,16.30
2022-12-18T02:57:12.191Z,14.77
2022-12-18T02:59:50.151Z,15.27
2022-12-18T03:02:26.316Z,16.20
2022-12-18T03:05:03.488Z,14.60
2022-12-18T03:07:39.317Z,15.03
2022-12-18T03:10:14.023Z,14.83
2022-12-18T03:12:49.652Z,16.20
2022-12-18T03:15:21.993Z,16.07
2022-12-18T03:17:55.232Z,14.60
2022-12-18T03:20:27.701Z,18.13
2022-12-18T03:23:02.606Z,17.10
2022-12-18T03:25:33.081Z,16.33
2022-12-18T03:28:05.875Z,16.40
2022-12-18T03:30:38.354Z,15.93
2022-12-18T03:33:12.994Z,15.83
2022-12-18T03:35:45.080Z,16.17
2022-12-18T03:38:14.265Z,16.00
2022-12-18T03:41:01.267Z,15.83
2022-12-18T03:43:44.056Z,17.73
2022-12-18T03:46:19.428Z,17.90
2022-12-18T03:48:52.268Z,16.97
2022-12-18T03:51:27.742Z,15.63
2022-12-18T03:54:00.966Z,16.07
2022-12-18T03:56:33.395Z,16.13
2022-12-18T03:59:06.052Z,17.07
2022-12-18T04:01:37.857Z,17.30
2022-12-18T04:04:09.159Z,16.70
2022-12-18T04:06:39.305Z,16.90
2022-12-18T04:09:08.270Z,16.53
2022-12-18T04:11:37.005Z,15.80
2022-12-18T04:14:07.489Z,17.10
2022-12-18T04:16:36.614Z,16.60
2022-12-18T04:19:05.299Z,16.53
2022-12-18T04:21:33.904Z,18.10
2022-12-18T04:24:02.632Z,17.60
2022-12-18T04:26:31.382Z,17.60
2022-12-18T04:29:00.052Z,16.70
2022-12-18T04:31:30.130Z,18.33
2022-12-18T04:33:58.864Z,17.63
2022-12-18T04:36:28.787Z,18.77
2022-12-18T04:38:57.615Z,17.77
2022-12-18T04:41:26.270Z,14.60
2022-12-18T04:43:55.004Z,16.10
2022-12-18T04:46:23.645Z,16.37
2022-12-18T04:48:53.765Z,16.20
2022-12-18T04:51:26.381Z,17.63
2022-12-18T04:53:55.792Z,16.53
2022-12-18T04:56:24.797Z,16.83
2022-12-18T04:58:53.520Z,17.97
2022-12-18T05:01:22.302Z,17.20
2022-12-18T05:03:53.419Z,17.80
2022-12-18T05:06:22.116Z,16.50
2022-12-18T05:08:50.721Z,15.13
2022-12-18T05:11:19.538Z,16.23
2022-12-18T05:13:49.302Z,16.43
2022-12-18T05:16:18.129Z,18.50
2022-12-18T05:18:46.800Z,18.70
2022-12-18T05:21:16.905Z,17.60
2022-12-18T05:23:45.594Z,16.87
2022-12-18T05:26:18.736Z,18.67
2022-12-18T05:28:48.229Z,14.30
2022-12-18T05:31:17.386Z,15.47
2022-12-18T05:33:46.396Z,17.10
2022-12-18T05:36:16.588Z,15.73
2022-12-18T05:38:45.409Z,16.03
2022-12-18T05:41:14.090Z,13.43
2022-12-18T05:43:43.448Z,14.93
2022-12-18T05:46:15.782Z,15.30
2022-12-18T05:48:45.063Z,15.40
2022-12-18T05:51:16.925Z,17.83
2022-12-18T05:53:46.196Z,18.40
2022-12-18T05:56:17.173Z,18.83
2022-12-18T05:58:46.195Z,17.90
2022-12-18T06:01:17.751Z,14.67
2022-12-18T06:03:47.162Z,18.43
2022-12-18T06:06:19.747Z,20.00
2022-12-18T06:08:49.149Z,17.57
2022-12-18T06:11:20.973Z,15.67
2022-12-18T06:13:56.336Z,21.77
2022-12-18T06:16:27.426Z,20.40
2022-12-18T06:18:58.072Z,21.33
2022-12-18T06:21:28.409Z,18.80
2022-12-18T06:23:57.172Z,23.33
2022-12-18T06:26:28.303Z,21.77
2022-12-18T06:28:57.807Z,18.27
2022-12-18T06:31:27.446Z,20.00
2022-12-18T06:33:56.314Z,19.90
2022-12-18T06:36:25.310Z,18.47
2022-12-18T06:38:55.485Z,22.37
2022-12-18T06:41:24.371Z,22.73
2022-12-18T06:43:58.162Z,19.40
2022-12-18T06:46:28.493Z,20.80
2022-12-18T06:48:57.198Z,21.93
2022-12-18T06:51:26.748Z,23.10
2022-12-18T06:53:57.139Z,22.10
2022-12-18T06:56:25.773Z,18.97
2022-12-18T06:58:54.723Z,21.70
2022-12-18T07:01:24.060Z,20.90
2022-12-18T07:03:56.004Z,21.57
2022-12-18T07:06:26.720Z,20.10
2022-12-18T07:08:57.042Z,19.70
2022-12-18T07:11:25.920Z,20.20
2022-12-18T07:13:55.553Z,20.83
2022-12-18T07:16:26.013Z,21.83
2022-12-18T07:18:55.175Z,22.37
2022-12-18T07:21:24.550Z,21.30
2022-12-18T07:23:53.500Z,20.60
2022-12-18T07:26:24.733Z,23.27
2022-12-18T07:28:56.798Z,18.90
2022-12-18T07:31:25.744Z,22.30
2022-12-18T07:33:55.113Z,23.60
2022-12-18T07:36:23.877Z,24.63
2022-12-18T07:38:53.727Z,23.17
2022-12-18T07:41:24.302Z,21.80
2022-12-18T07:43:53.014Z,21.80
2022-12-18T07:46:22.066Z,23.10
2022-12-18T07:48:50.919Z,23.37
2022-12-18T07:51:20.257Z,24.50
2022-12-18T07:53:52.288Z,27.27
2022-12-18T07:56:28.137Z,25.17
2022-12-18T07:58:58.683Z,26.90
2022-12-18T08:01:27.591Z,29.53
2022-12-18T08:03:56.534Z,28.43
2022-12-18T08:06:25.467Z,30.27
2022-12-18T08:08:55.264Z,29.07
2022-12-18T08:11:28.335Z,25.80
2022-12-18T08:13:57.959Z,26.60
2022-12-18T08:16:26.818Z,27.50
2022-12-18T08:18:56.470Z,19.83
2022-12-18T08:21:27.691Z,27.17
2022-12-18T08:23:57.857Z,27.10
2022-12-18T08:26:29.940Z,24.50
2022-12-18T08:29:00.490Z,18.90
2022-12-18T08:31:31.392Z,17.30
2022-12-18T08:34:00.138Z,17.50
2022-12-18T08:36:29.030Z,17.10
2022-12-18T08:38:57.877Z,16.73
2022-12-18T08:41:29.434Z,20.30
2022-12-18T08:44:16.485Z,21.20
2022-12-18T08:46:46.539Z,21.40
2022-12-18T08:49:15.911Z,23.90
2022-12-18T08:51:44.766Z,19.37
2022-12-18T08:54:14.981Z,19.33
2022-12-18T08:56:45.088Z,21.03
2022-12-18T08:59:19.339Z,21.20
2022-12-18T09:01:49.579Z,19.30
2022-12-18T09:04:18.820Z,19.27
2022-12-18T09:06:47.652Z,21.70
2022-12-18T09:09:16.718Z,19.97
2022-12-18T09:11:52.820Z,16.93
2022-12-18T09:14:23.874Z,16.20
2022-12-18T09:16:54.609Z,18.83
2022-12-18T09:19:26.183Z,19.10
2022-12-18T09:21:58.188Z,18.97
2022-12-18T09:24:28.358Z,18.53
2022-12-18T09:26:59.662Z,16.23
2022-12-18T09:29:28.896Z,20.70
2022-12-18T09:31:58.128Z,19.87
2022-12-18T09:34:28.278Z,15.50
2022-12-18T09:36:59.381Z,15.83
2022-12-18T09:39:32.695Z,22.60
2022-12-18T09:42:05.098Z,15.57
2022-12-18T09:44:45.161Z,20.63
2022-12-18T09:47:21.717Z,21.17
2022-12-18T09:49:57.347Z,18.17
2022-12-18T09:52:40.289Z,15.33
2022-12-18T09:55:21.631Z,16.50
2022-12-18T09:57:58.177Z,16.23
2022-12-18T10:00:30.287Z,23.92
2022-12-18T10:03:13.286Z,21.77
2022-12-18T10:05:51.731Z,17.23
2022-12-18T10:08:28.767Z,19.63
2022-12-18T10:11:04.210Z,18.03
2022-12-18T10:13:40.857Z,19.90
2022-12-18T10:16:18.813Z,17.57
2022-12-18T10:19:04.084Z,18.60
2022-12-18T10:21:39.579Z,18.83
2022-12-18T10:24:18.123Z,19.50
2022-12-18T10:26:47.728Z,19.70
2022-12-18T10:29:19.666Z,19.20
2022-12-18T10:31:48.965Z,20.63
2022-12-18T10:34:17.936Z,18.00
2022-12-18T10:36:49.339Z,17.67
2022-12-18T10:39:20.645Z,21.00
2022-12-18T10:41:50.888Z,22.33
2022-12-18T10:44:25.266Z,21.00
2022-12-18T10:46:58.302Z,20.70
2022-12-18T10:49:29.702Z,19.30
2022-12-18T10:52:13.602Z,23.33
2022-12-18T10:54:42.624Z,20.63
2022-12-18T10:57:19.730Z,23.00
2022-12-18T10:59:57.281Z,22.10
2022-12-18T11:02:37.317Z,17.00
2022-12-18T11:05:25.758Z,18.40
2022-12-18T11:07:56.346Z,19.27
2022-12-18T11:10:31.836Z,22.97
2022-12-18T11:13:20.008Z,22.00
2022-12-18T11:15:50.797Z,22.47
2022-12-18T11:18:24.808Z,20.73
2022-12-18T11:20:58.772Z,23.17
2022-12-18T11:23:29.091Z,22.33
2022-12-18T11:26:02.942Z,21.47
2022-12-18T11:28:39.362Z,19.87
2022-12-18T11:31:20.398Z,24.20
2022-12-18T11:34:26.968Z,18.80
2022-12-18T11:36:48.336Z,14.17
2022-12-18T11:39:23.362Z,22.97
2022-12-18T11:42:13.802Z,24.23
2022-12-18T11:44:50.042Z,18.43
2022-12-18T11:47:30.933Z,24.67
2022-12-18T11:50:04.192Z,17.13
2022-12-18T11:52:41.458Z,25.40
2022-12-18T11:55:16.506Z,24.30
2022-12-18T11:57:55.286Z,23.13
2022-12-18T12:00:26.585Z,19.37
2022-12-18T12:03:34.316Z,22.57
2022-12-18T12:06:12.955Z,25.10
2022-12-18T12:08:55.700Z,20.00
2022-12-18T12:11:35.189Z,17.37
2022-12-18T12:14:20.466Z,23.60
2022-12-18T12:16:55.604Z,21.97
2022-12-18T12:19:37.661Z,22.20
2022-12-18T12:22:15.936Z,24.60
2022-12-18T12:24:57.971Z,24.40
2022-12-18T12:27:37.735Z,18.30
2022-12-18T12:30:10.638Z,23.10
2022-12-18T12:32:52.258Z,22.47
2022-12-18T12:35:38.861Z,23.90
2022-12-18T12:38:13.349Z,24.80
2022-12-18T12:40:55.187Z,23.40
2022-12-18T12:43:38.381Z,24.97
2022-12-18T12:46:13.235Z,22.93
2022-12-18T12:48:46.918Z,23.80
2022-12-18T12:51:22.407Z,20.87
2022-12-18T12:53:53.044Z,24.10
2022-12-18T12:56:23.638Z,26.50
2022-12-18T12:59:01.508Z,24.00
2022-12-18T13:01:39.561Z,26.13
2022-12-18T13:04:21.787Z,25.60
2022-12-18T13:07:02.170Z,25.30
2022-12-18T13:09:35.020Z,26.40
2022-12-18T13:12:24.138Z,28.30
2022-12-18T13:14:53.020Z,28.60
2022-12-18T13:17:33.830Z,25.90
2022-12-18T13:20:15.617Z,27.67
2022-12-18T13:22:50.134Z,24.07
2022-12-18T13:25:34.718Z,27.10
2022-12-18T13:28:15.635Z,25.80
2022-12-18T13:30:57.436Z,24.37
2022-12-18T13:34:09.382Z,25.10
2022-12-18T13:36:36.378Z,16.37
2022-12-18T13:39:32.921Z,23.67
2022-12-18T13:42:59.529Z,22.60
2022-12-18T13:45:50.284Z,25.50
2022-12-18T13:48:21.758Z,22.70
2022-12-18T13:51:05.699Z,19.27
2022-12-18T13:53:45.818Z,23.30
2022-12-18T13:56:20.590Z,23.23
2022-12-18T13:59:14.286Z,24.70
2022-12-18T14:01:53.194Z,25.00
2022-12-18T14:04:29.411Z,20.53
2022-12-18T14:07:04.150Z,22.60
2022-12-18T14:09:40.462Z,22.63
2022-12-18T14:12:36.735Z,24.27
2022-12-18T14:15:08.543Z,20.17
2022-12-18T14:17:39.429Z,23.70
2022-12-18T14:20:17.156Z,21.80
2022-12-18T14:22:47.557Z,21.60
2022-12-18T14:25:23.493Z,20.27
2022-12-18T14:28:04.634Z,26.13
2022-12-18T14:30:35.767Z,22.30
2022-12-18T14:33:10.629Z,24.63
2022-12-18T14:35:45.830Z,22.27
2022-12-18T14:38:25.613Z,21.80
2022-12-18T14:41:00.754Z,21.50
2022-12-18T14:43:35.479Z,32.13
2022-12-18T14:46:06.321Z,23.87
2022-12-18T14:48:40.170Z,24.00
2022-12-18T14:51:18.438Z,29.40
2022-12-18T14:53:54.554Z,34.80
2022-12-18T14:56:27.698Z,33.30
2022-12-18T14:59:00.455Z,27.07
2022-12-18T15:01:32.834Z,31.43
2022-12-18T15:04:03.470Z,32.57
2022-12-18T15:06:44.374Z,26.87
2022-12-18T15:09:27.558Z,35.00
2022-12-18T15:12:01.092Z,35.37
2022-12-18T15:14:43.939Z,32.40
2022-12-18T15:17:21.850Z,35.30
2022-12-18T15:19:55.731Z,27.80
2022-12-18T15:22:31.758Z,27.50
2022-12-18T15:25:04.295Z,28.33
2022-12-18T15:27:37.621Z,27.60
2022-12-18T15:30:26.317Z,28.47
2022-12-18T15:33:27.941Z,35.43
2022-12-18T15:36:02.769Z,34.43
2022-12-18T15:38:34.357Z,28.33
2022-12-18T15:41:10.109Z,27.00
2022-12-18T15:43:42.500Z,30.87
2022-12-18T15:46:16.674Z,30.83
2022-12-18T15:48:49.137Z,29.17
2022-12-18T15:51:26.656Z,30.07
2022-12-18T15:53:59.129Z,33.73
2022-12-18T15:56:47.069Z,31.77
2022-12-18T15:59:20.170Z,32.30
2022-12-18T16:01:58.174Z,35.77
2022-12-18T16:04:29.893Z,36.27
2022-12-18T16:07:14.723Z,38.43
2022-12-18T16:09:51.048Z,39.10
2022-12-18T16:12:26.968Z,33.17
2022-12-18T16:18:28.308Z,34.20
2022-12-18T16:21:01.368Z,35.57
2022-12-18T16:23:40.237Z,38.20
2022-12-18T16:26:11.274Z,35.50
2022-12-18T16:28:48.650Z,32.23
2022-12-18T16:31:21.375Z,35.43
2022-12-18T16:33:54.037Z,25.90
2022-12-18T16:36:28.850Z,27.00
2022-12-18T16:39:00.309Z,35.97
2022-12-18T16:41:37.016Z,33.80
2022-12-18T16:44:07.809Z,29.53
2022-12-18T16:46:39.840Z,34.10
2022-12-18T16:49:12.848Z,30.87
2022-12-18T16:51:43.496Z,34.30
2022-12-18T16:54:18.996Z,35.73
2022-12-18T16:56:51.426Z,34.90
2022-12-18T16:59:22.174Z,35.80
2022-12-18T17:01:56.451Z,34.50
2022-12-18T17:04:28.994Z,37.37
2022-12-18T17:06:59.661Z,36.97
2022-12-18T17:09:31.096Z,36.53
2022-12-18T17:12:04.424Z,37.13
2022-12-18T17:14:35.708Z,37.27
2022-12-18T17:17:20.919Z,36.70
2022-12-18T17:19:56.990Z,37.00
2022-12-18T17:22:28.382Z,40.87
2022-12-18T17:25:05.933Z,36.60
2022-12-18T17:27:36.502Z,34.87
2022-12-18T17:30:13.588Z,36.13
2022-12-18T17:32:47.700Z,39.10
2022-12-18T17:35:20.729Z,37.67
2022-12-18T17:37:52.329Z,36.67
2022-12-18T17:40:25.591Z,40.77
2022-12-18T17:43:00.387Z,39.03
2022-12-18T17:45:36.906Z,42.90
2022-12-18T17:48:13.066Z,41.17
2022-12-18T17:50:45.220Z,40.47
2022-12-18T17:53:16.509Z,38.47
2022-12-18T17:55:47.430Z,38.60
2022-12-18T17:58:20.004Z,41.17
2022-12-18T18:00:51.578Z,39.17
2022-12-18T18:03:22.403Z,40.67
2022-12-18T18:05:58.621Z,42.97
2022-12-18T18:08:33.883Z,47.63
2022-12-18T18:11:23.293Z,47.73
2022-12-18T18:14:06.194Z,42.00
2022-12-18T18:16:39.284Z,42.90
2022-12-18T18:19:11.230Z,46.17
2022-12-18T18:21:47.690Z,47.20
2022-12-18T18:24:20.016Z,45.93
2022-12-18T18:27:00.906Z,43.57
2022-12-18T18:29:34.347Z,46.37
2022-12-18T18:32:06.200Z,49.20
2022-12-18T18:34:37.404Z,47.67
2022-12-18T18:37:12.362Z,48.30
2022-12-18T18:39:45.223Z,49.40
2022-12-18T18:42:15.193Z,57.80
2022-12-18T18:44:48.897Z,54.47
2022-12-18T18:47:20.459Z,49.53
2022-12-18T18:49:52.445Z,52.10
2022-12-18T18:52:26.235Z,53.60
2022-12-18T18:55:12.740Z,54.93
2022-12-18T18:57:46.367Z,54.57
2022-12-18T19:00:20.156Z,60.73
2022-12-18T19:02:56.327Z,59.10
2022-12-18T19:05:33.540Z,52.90
2022-12-18T19:08:08.439Z,55.30
2022-12-18T19:10:42.803Z,58.10
2022-12-18T19:13:26.829Z,54.03
2022-12-18T19:15:58.843Z,55.50
2022-12-18T19:18:32.352Z,58.80
2022-12-18T19:21:07.692Z,62.43
2022-12-18T19:23:40.420Z,60.10
2022-12-18T19:26:28.522Z,59.50
2022-12-18T19:29:04.614Z,59.07
2022-12-18T19:31:37.019Z,58.57
2022-12-18T19:34:10.430Z,55.03
2022-12-18T19:36:59.613Z,57.90
2022-12-18T19:39:32.688Z,58.63
2022-12-18T19:42:02.290Z,58.53
2022-12-18T19:44:32.503Z,57.77
2022-12-18T19:47:03.522Z,66.00
2022-12-18T19:49:35.409Z,56.60
2022-12-18T19:52:05.460Z,59.50
2022-12-18T19:54:38.954Z,59.90
2022-12-18T19:57:12.135Z,61.50
2022-12-18T19:59:42.327Z,55.60
2022-12-18T20:02:19.036Z,60.03
2022-12-18T20:04:50.886Z,58.50
2022-12-18T20:07:20.911Z,58.13
2022-12-18T20:09:59.608Z,58.37
2022-12-18T20:12:35.241Z,57.53
2022-12-18T20:15:06.512Z,61.20
2022-12-18T20:17:36.482Z,58.10
2022-12-18T20:20:07.309Z,56.47
2022-12-18T20:22:37.935Z,60.73
2022-12-18T20:25:11.660Z,58.17
2022-12-18T20:27:42.281Z,56.73
2022-12-18T20:30:13.110Z,60.50
2022-12-18T20:32:43.113Z,54.50
2022-12-18T20:35:14.003Z,53.70
2022-12-18T20:37:48.727Z,56.10
2022-12-18T20:40:24.203Z,57.80
2022-12-18T20:42:57.019Z,56.97
2022-12-18T20:45:26.454Z,55.00
2022-12-18T20:48:01.970Z,56.30
2022-12-18T20:50:32.123Z,56.30
2022-12-18T20:53:01.681Z,56.73
2022-12-18T20:55:34.221Z,57.50
2022-12-18T20:58:03.622Z,60.90
2022-12-18T21:00:33.424Z,55.67
2022-12-18T21:03:02.539Z,55.63
2022-12-18T21:05:32.662Z,55.00
2022-12-18T21:08:02.992Z,52.67
2022-12-18T21:10:33.587Z,51.10
2022-12-18T21:13:04.476Z,53.53
2022-12-18T21:15:34.020Z,55.03
2022-12-18T21:18:03.323Z,54.07
2022-12-18T21:20:33.354Z,55.03
2022-12-18T21:23:13.236Z,55.73
2022-12-18T21:25:48.204Z,53.20
2022-12-18T21:28:21.228Z,55.67
2022-12-18T21:30:50.704Z,58.57
2022-12-18T21:33:19.743Z,58.77
2022-12-18T21:35:48.914Z,61.07
2022-12-18T21:38:18.023Z,59.20
2022-12-18T21:40:48.474Z,61.67
2022-12-18T21:43:34.972Z,61.17
2022-12-18T21:46:03.999Z,61.87
2022-12-18T21:48:32.779Z,59.87
2022-12-18T21:51:01.863Z,64.87
2022-12-18T21:53:30.721Z,64.23
2022-12-18T21:56:01.683Z,62.90
2022-12-18T21:58:30.468Z,60.10
2022-12-18T22:00:59.379Z,57.90
2022-12-18T22:03:28.394Z,64.57
2022-12-18T22:06:09.490Z,68.97
2022-12-18T22:08:43.533Z,67.40
2022-12-18T22:11:16.213Z,68.20
2022-12-18T22:13:46.950Z,63.00
2022-12-18T22:16:15.787Z,62.53
2022-12-18T22:18:44.884Z,63.20
2022-12-18T22:21:29.038Z,66.43
2022-12-18T22:23:59.850Z,63.07
2022-12-18T22:26:39.437Z,62.47
2022-12-18T22:29:28.537Z,63.97
2022-12-18T22:31:58.993Z,68.13
2022-12-18T22:34:28.726Z,67.10
2022-12-18T22:36:57.901Z,63.43
2022-12-18T22:39:28.863Z,65.37
2022-12-18T22:41:59.810Z,75.87
2022-12-18T22:44:28.657Z,65.60
2022-12-18T22:47:06.023Z,67.97
2022-12-18T22:49:36.776Z,58.57
2022-12-18T22:52:07.416Z,67.63
2022-12-18T22:54:36.384Z,68.00
2022-12-18T22:57:06.681Z,64.73
2022-12-18T22:59:36.282Z,67.30
2022-12-18T23:02:05.228Z,71.37
2022-12-18T23:04:36.558Z,70.47
2022-12-18T23:07:05.902Z,70.50
2022-12-18T23:09:35.888Z,70.80
2022-12-18T23:12:07.080Z,72.70
2022-12-18T23:14:36.039Z,72.33
2022-12-18T23:17:04.906Z,77.30
2022-12-18T23:19:33.750Z,68.10
2022-12-18T23:22:03.511Z,67.70
2022-12-18T23:24:34.898Z,73.57
2022-12-18T23:27:03.690Z,74.13
2022-12-18T23:29:38.104Z,74.20
2022-12-18T23:32:07.052Z,65.60
2022-12-18T23:34:35.859Z,72.30
2022-12-18T23:37:04.938Z,69.50
2022-12-18T23:39:33.705Z,72.77
2022-12-18T23:42:02.840Z,70.30
2022-12-18T23:44:31.634Z,69.50
2022-12-18T23:47:01.931Z,71.07
2022-12-18T23:49:30.778Z,77.13
2022-12-18T23:51:59.844Z,73.00
2022-12-18T23:54:32.689Z,68.20
2022-12-18T23:57:01.955Z,71.63
2022-12-18T23:59:30.867Z,67.57
